createdAt,value
2023-01-13T00:00:26.208Z,41.90
2023-01-13T00:02:52.505Z,34.72
2023-01-13T00:05:18.802Z,43.83
2023-01-13T00:07:46.352Z,36.75
2023-01-13T00:10:12.617Z,39.35
2023-01-13T00:12:39.669Z,31.88
2023-01-13T00:15:06.475Z,43.60
2023-01-13T00:17:32.703Z,41.53
2023-01-13T00:19:58.965Z,33.80
2023-01-13T00:22:25.234Z,40.83
2023-01-13T00:24:51.469Z,39.65
2023-01-13T00:27:17.693Z,42.00
2023-01-13T00:29:44.058Z,36.83
2023-01-13T00:32:10.306Z,38.25
2023-01-13T00:34:36.591Z,44.88
2023-01-13T00:37:02.860Z,38.88
2023-01-13T00:39:29.174Z,47.08
2023-01-13T00:42:13.940Z,44.22
2023-01-13T00:44:40.181Z,46.55
2023-01-13T00:47:06.548Z,37.95
2023-01-13T00:49:32.775Z,44.25
2023-01-13T00:51:58.995Z,41.70
2023-01-13T00:54:25.299Z,44.28
2023-01-13T00:56:51.538Z,40.70
2023-01-13T00:59:18.727Z,44.08
2023-01-13T01:01:45.083Z,33.72
2023-01-13T01:04:12.030Z,43.70
2023-01-13T01:06:38.332Z,38.78
2023-01-13T01:09:05.031Z,30.52
2023-01-13T01:11:32.096Z,40.35
2023-01-13T01:14:00.309Z,34.97
2023-01-13T01:16:28.084Z,40.33
2023-01-13T01:18:55.089Z,42.13
2023-01-13T01:21:22.106Z,44.75
2023-01-13T01:23:48.406Z,38.15
2023-01-13T01:26:15.940Z,37.20
2023-01-13T01:28:42.542Z,46.67
2023-01-13T01:31:09.874Z,53.10
2023-01-13T01:33:36.237Z,28.75
2023-01-13T01:36:02.901Z,45.65
2023-01-13T01:38:29.329Z,35.42
2023-01-13T01:40:55.867Z,39.17
2023-01-13T01:44:01.540Z,40.70
2023-01-13T01:46:40.954Z,48.97
2023-01-13T01:49:07.199Z,40.78
2023-01-13T01:51:36.504Z,36.15
2023-01-13T01:54:04.764Z,36.85
2023-01-13T01:56:32.342Z,35.80
2023-01-13T01:58:58.656Z,46.70
2023-01-13T02:01:25.061Z,43.00
2023-01-13T02:04:09.466Z,38.80
2023-01-13T02:06:35.715Z,40.17
2023-01-13T02:09:02.233Z,55.67
2023-01-13T02:11:48.300Z,41.00
2023-01-13T02:14:14.973Z,47.38
2023-01-13T02:16:45.682Z,49.90
2023-01-13T02:21:44.179Z,46.72
2023-01-13T02:24:41.029Z,34.72
2023-01-13T02:27:07.254Z,64.68
2023-01-13T02:30:07.312Z,36.97
2023-01-13T02:32:45.467Z,39.63
2023-01-13T02:35:20.835Z,38.92
2023-01-13T02:37:48.351Z,42.67
2023-01-13T02:40:19.943Z,57.47
2023-01-13T02:43:20.446Z,41.78
2023-01-13T02:45:52.643Z,38.47
2023-01-13T02:48:20.618Z,49.58
2023-01-13T02:50:59.103Z,45.72
2023-01-13T02:53:27.993Z,35.53
2023-01-13T02:55:55.522Z,38.47
2023-01-13T02:58:27.260Z,44.90
2023-01-13T03:00:53.755Z,41.70
2023-01-13T03:03:20.124Z,43.42
2023-01-13T03:05:48.671Z,42.97
2023-01-13T03:08:33.322Z,46.28
2023-01-13T03:11:03.256Z,48.00
2023-01-13T03:13:45.931Z,43.05
2023-01-13T03:16:38.381Z,45.92
2023-01-13T03:19:04.669Z,48.03
2023-01-13T03:21:35.885Z,40.13
2023-01-13T03:24:14.509Z,48.10
2023-01-13T03:26:44.457Z,37.45
2023-01-13T03:29:49.039Z,38.30
2023-01-13T03:32:20.265Z,38.97
2023-01-13T03:34:48.891Z,42.05
2023-01-13T03:37:16.735Z,40.17
2023-01-13T03:39:45.760Z,37.75
2023-01-13T03:42:15.322Z,43.17
2023-01-13T03:44:46.159Z,33.53
2023-01-13T03:47:12.403Z,35.63
2023-01-13T03:49:48.088Z,40.75
2023-01-13T03:52:18.844Z,45.75
2023-01-13T03:54:48.169Z,35.08
2023-01-13T03:57:15.807Z,39.70
2023-01-13T03:59:43.927Z,40.90
2023-01-13T04:02:17.458Z,53.72
2023-01-13T04:05:13.345Z,42.25
2023-01-13T04:07:58.067Z,26.75
2023-01-13T04:10:28.609Z,28.98
2023-01-13T04:13:01.156Z,36.92
2023-01-13T04:15:36.162Z,21.98
2023-01-13T04:18:22.734Z,31.58
2023-01-13T04:20:50.062Z,27.55
2023-01-13T04:23:17.041Z,23.67
2023-01-13T04:25:44.712Z,24.23
2023-01-13T04:28:11.488Z,24.42
2023-01-13T04:30:38.086Z,24.88
2023-01-13T04:33:05.335Z,18.75
2023-01-13T04:35:31.927Z,19.42
2023-01-13T04:38:00.397Z,19.25
2023-01-13T04:40:26.784Z,13.25
2023-01-13T04:42:53.025Z,19.88
2023-01-13T04:45:19.289Z,16.65
2023-01-13T04:47:45.796Z,11.57
2023-01-13T04:50:12.260Z,14.38
2023-01-13T04:52:38.827Z,13.65
2023-01-13T04:55:05.322Z,17.25
2023-01-13T04:57:33.239Z,9.15
2023-01-13T04:59:59.608Z,21.15
2023-01-13T05:02:25.878Z,22.48
2023-01-13T05:04:52.210Z,14.98
2023-01-13T05:07:18.503Z,11.90
2023-01-13T05:09:44.743Z,20.67
2023-01-13T05:12:30.237Z,15.07
2023-01-13T05:15:15.327Z,14.15
2023-01-13T05:17:42.008Z,18.50
2023-01-13T05:20:09.152Z,18.83
2023-01-13T05:22:53.868Z,15.27
2023-01-13T05:25:22.962Z,15.95
2023-01-13T05:27:49.763Z,20.50
2023-01-13T05:30:16.589Z,22.25
2023-01-13T05:32:43.159Z,20.08
2023-01-13T05:35:09.532Z,23.70
2023-01-13T05:37:36.253Z,22.75
2023-01-13T05:40:21.415Z,20.00
2023-01-13T05:43:06.156Z,24.90
2023-01-13T05:45:32.403Z,20.35
2023-01-13T05:47:58.726Z,21.20
2023-01-13T05:50:24.976Z,20.25
2023-01-13T05:52:51.244Z,15.27
2023-01-13T05:55:17.546Z,35.35
2023-01-13T05:57:43.989Z,21.45
2023-01-13T06:00:10.549Z,32.90
2023-01-13T06:02:36.829Z,28.48
2023-01-13T06:05:03.175Z,29.17
2023-01-13T06:07:29.459Z,19.25
2023-01-13T06:09:55.696Z,19.52
2023-01-13T06:12:21.987Z,21.58
2023-01-13T06:14:48.290Z,15.20
2023-01-13T06:17:15.497Z,30.70
2023-01-13T06:19:42.123Z,18.58
2023-01-13T06:22:11.676Z,29.50
2023-01-13T06:24:37.932Z,29.23
2023-01-13T06:27:05.012Z,22.17
2023-01-13T06:29:31.250Z,26.38
2023-01-13T06:31:57.929Z,25.98
2023-01-13T06:34:24.217Z,33.45
2023-01-13T06:36:52.125Z,34.72
2023-01-13T06:39:20.084Z,31.75
2023-01-13T06:42:06.601Z,22.38
2023-01-13T06:44:33.130Z,31.17
2023-01-13T06:46:59.412Z,29.35
2023-01-13T06:49:25.740Z,27.02
2023-01-13T06:51:52.007Z,25.70
2023-01-13T06:54:18.421Z,25.90
2023-01-13T06:56:44.698Z,28.63
2023-01-13T06:59:11.016Z,33.22
2023-01-13T07:01:37.371Z,33.05
2023-01-13T07:04:04.049Z,27.10
2023-01-13T07:06:30.423Z,28.48
2023-01-13T07:08:56.686Z,30.05
2023-01-13T07:11:23.011Z,36.13
2023-01-13T07:14:07.886Z,26.77
2023-01-13T07:16:34.192Z,27.90
2023-01-13T07:19:00.534Z,25.67
2023-01-13T07:21:26.856Z,24.98
2023-01-13T07:23:53.160Z,25.80
2023-01-13T07:26:19.632Z,31.80
2023-01-13T07:28:45.940Z,29.92
2023-01-13T07:31:14.019Z,33.15
2023-01-13T07:33:40.308Z,33.08
2023-01-13T07:36:07.204Z,35.05
2023-01-13T07:38:33.785Z,25.52
2023-01-13T07:41:23.217Z,32.08
2023-01-13T07:43:49.981Z,32.88
2023-01-13T07:46:16.661Z,30.58
2023-01-13T07:48:43.309Z,22.50
2023-01-13T07:51:10.742Z,41.40
2023-01-13T07:53:37.151Z,25.15
2023-01-13T07:56:05.049Z,33.22
2023-01-13T07:58:32.455Z,18.00
2023-01-13T08:00:59.058Z,22.20
2023-01-13T08:03:26.479Z,22.27
2023-01-13T08:05:52.964Z,26.83
2023-01-13T08:08:19.637Z,34.42
2023-01-13T08:10:45.971Z,29.23
2023-01-13T08:13:20.970Z,32.55
2023-01-13T08:15:48.909Z,30.65
2023-01-13T08:18:15.641Z,43.60
2023-01-13T08:20:41.932Z,33.15
2023-01-13T08:23:08.220Z,33.38
2023-01-13T08:25:34.561Z,27.20
2023-01-13T08:28:00.908Z,21.00
2023-01-13T08:30:27.681Z,24.58
2023-01-13T08:32:54.271Z,29.25
2023-01-13T08:35:21.015Z,32.75
2023-01-13T08:37:47.841Z,22.02
2023-01-13T08:40:14.691Z,27.33
2023-01-13T08:42:41.370Z,31.52
2023-01-13T08:45:08.360Z,38.05
2023-01-13T08:47:34.969Z,26.13
2023-01-13T08:50:01.331Z,31.80
2023-01-13T08:52:28.624Z,34.92
2023-01-13T08:54:54.880Z,32.13
2023-01-13T08:57:21.198Z,29.60
2023-01-13T08:59:47.599Z,32.88
2023-01-13T09:02:15.284Z,36.45
2023-01-13T09:04:41.786Z,42.53
2023-01-13T09:07:08.838Z,39.55
2023-01-13T09:09:35.216Z,36.22
2023-01-13T09:12:20.155Z,33.67
2023-01-13T09:14:46.524Z,40.28
2023-01-13T09:17:12.819Z,32.40
2023-01-13T09:19:39.074Z,24.10
2023-01-13T09:22:05.385Z,34.80
2023-01-13T09:24:31.847Z,40.17
2023-01-13T09:26:58.238Z,37.38
2023-01-13T09:29:24.586Z,34.65
2023-01-13T09:31:51.979Z,33.33
2023-01-13T09:34:37.772Z,34.55
2023-01-13T09:37:04.875Z,34.63
2023-01-13T09:39:32.263Z,19.45
2023-01-13T09:42:20.796Z,36.28
2023-01-13T09:44:57.521Z,26.38
2023-01-13T09:47:23.813Z,26.98
2023-01-13T09:49:50.359Z,25.15
2023-01-13T09:52:21.526Z,34.63
2023-01-13T09:54:50.669Z,35.10
2023-01-13T09:57:18.012Z,27.90
2023-01-13T09:59:44.491Z,29.45
2023-01-13T10:02:10.703Z,31.70
2023-01-13T10:04:37.139Z,22.38
2023-01-13T10:07:05.702Z,26.70
2023-01-13T10:09:49.347Z,33.50
2023-01-13T10:12:38.506Z,29.73
2023-01-13T10:15:05.205Z,26.15
2023-01-13T10:17:39.970Z,32.10
2023-01-13T10:20:22.502Z,34.22
2023-01-13T10:22:58.007Z,28.85
2023-01-13T10:25:45.531Z,26.30
2023-01-13T10:28:13.308Z,35.75
2023-01-13T10:30:44.108Z,27.52
2023-01-13T10:33:12.939Z,29.08
2023-01-13T10:35:48.390Z,33.13
2023-01-13T10:38:19.524Z,25.27
2023-01-13T10:40:56.545Z,23.50
2023-01-13T10:43:23.263Z,36.67
2023-01-13T10:45:56.887Z,27.50
2023-01-13T10:48:23.155Z,37.58
2023-01-13T10:50:49.506Z,36.78
2023-01-13T10:53:17.752Z,29.92
2023-01-13T10:55:44.146Z,28.85
2023-01-13T10:58:17.868Z,34.85
2023-01-13T11:00:44.952Z,22.38
2023-01-13T11:03:21.275Z,36.28
2023-01-13T11:05:48.559Z,36.15
2023-01-13T11:08:17.069Z,42.08
2023-01-13T11:10:47.939Z,30.52
2023-01-13T11:13:19.580Z,25.83
2023-01-13T11:15:53.841Z,28.95
2023-01-13T11:18:40.284Z,25.13
2023-01-13T11:21:09.378Z,24.63
2023-01-13T11:23:38.215Z,21.65
2023-01-13T11:26:10.356Z,24.48
2023-01-13T11:28:45.514Z,30.48
2023-01-13T11:31:21.203Z,31.33
2023-01-13T11:33:50.547Z,24.20
2023-01-13T11:36:31.243Z,24.58
2023-01-13T11:41:23.678Z,30.52
2023-01-13T11:43:50.131Z,24.52
2023-01-13T11:46:16.602Z,23.55
2023-01-13T11:48:43.065Z,22.67
2023-01-13T11:51:18.003Z,24.05
2023-01-13T11:53:53.678Z,20.77
2023-01-13T11:56:20.045Z,19.60
2023-01-13T11:58:51.158Z,24.30
2023-01-13T12:01:26.313Z,23.85
2023-01-13T12:03:58.638Z,15.60
2023-01-13T12:06:31.699Z,24.73
2023-01-13T12:09:02.568Z,23.05
2023-01-13T12:12:11.204Z,29.67
2023-01-13T12:14:40.286Z,23.50
2023-01-13T12:17:09.839Z,18.45
2023-01-13T12:19:36.128Z,25.83
2023-01-13T12:22:11.782Z,19.50
2023-01-13T12:24:41.040Z,16.95
2023-01-13T12:27:13.414Z,19.65
2023-01-13T12:29:39.820Z,22.10
2023-01-13T12:32:10.290Z,25.38
2023-01-13T12:34:47.249Z,18.73
2023-01-13T12:37:13.569Z,24.27
2023-01-13T12:39:42.850Z,31.65
2023-01-13T12:42:30.750Z,20.95
2023-01-13T12:45:12.155Z,20.73
2023-01-13T12:47:40.071Z,18.77
2023-01-13T12:50:21.760Z,21.60
2023-01-13T12:52:52.490Z,26.23
2023-01-13T12:57:57.194Z,18.98
2023-01-13T13:00:23.686Z,14.35
2023-01-13T13:03:09.796Z,24.73
2023-01-13T13:05:54.253Z,14.43
2023-01-13T13:08:22.941Z,23.65
2023-01-13T13:11:06.525Z,29.27
2023-01-13T13:13:44.775Z,14.50
2023-01-13T13:16:26.207Z,14.27
2023-01-13T13:19:13.159Z,18.10
2023-01-13T13:21:58.012Z,21.60
2023-01-13T13:24:25.217Z,18.30
2023-01-13T13:26:51.520Z,15.23
2023-01-13T13:29:29.741Z,12.20
2023-01-13T13:32:11.298Z,12.88
2023-01-13T13:34:40.280Z,17.65
2023-01-13T13:37:17.346Z,17.73
2023-01-13T13:40:02.405Z,12.73
2023-01-13T13:42:39.087Z,40.78
2023-01-13T13:45:53.331Z,19.55
2023-01-13T13:48:30.673Z,16.60
2023-01-13T13:51:02.043Z,13.60
2023-01-13T13:53:31.368Z,23.92
2023-01-13T13:56:01.871Z,11.38
2023-01-13T13:58:29.627Z,15.25
2023-01-13T14:00:56.753Z,17.02
2023-01-13T14:03:26.951Z,23.77
2023-01-13T14:05:55.011Z,19.73
2023-01-13T14:08:21.804Z,20.60
2023-01-13T14:10:48.223Z,18.92
2023-01-13T14:13:18.509Z,19.70
2023-01-13T14:15:45.908Z,22.08
2023-01-13T14:18:19.439Z,19.25
2023-01-13T14:21:00.867Z,21.40
2023-01-13T14:23:31.285Z,16.95
2023-01-13T14:26:07.887Z,16.42
2023-01-13T14:28:36.553Z,17.65
2023-01-13T14:31:04.269Z,16.05
2023-01-13T14:33:38.872Z,19.38
2023-01-13T14:36:23.856Z,24.80
2023-01-13T14:39:14.713Z,22.02
2023-01-13T14:41:46.955Z,24.35
2023-01-13T14:44:13.193Z,13.55
2023-01-13T14:46:40.493Z,18.83
2023-01-13T14:49:23.238Z,17.25
2023-01-13T14:51:49.626Z,25.98
2023-01-13T14:54:34.587Z,15.70
2023-01-13T14:57:12.912Z,20.00
2023-01-13T14:59:51.812Z,16.52
2023-01-13T15:02:30.295Z,18.08
2023-01-13T15:04:59.074Z,17.33
2023-01-13T15:07:26.744Z,20.08
2023-01-13T15:09:54.987Z,23.40
2023-01-13T15:12:40.519Z,23.38
2023-01-13T15:15:18.977Z,28.17
2023-01-13T15:17:46.880Z,20.95
2023-01-13T15:20:14.065Z,21.58
2023-01-13T15:22:40.322Z,23.65
2023-01-13T15:25:09.367Z,17.70
2023-01-13T15:27:36.655Z,18.40
2023-01-13T15:30:03.822Z,18.42
2023-01-13T15:32:30.087Z,19.65
2023-01-13T15:34:56.378Z,15.48
2023-01-13T15:37:24.470Z,18.90
2023-01-13T15:39:50.778Z,17.60
2023-01-13T15:42:35.519Z,22.48
2023-01-13T15:45:20.330Z,19.65
2023-01-13T15:47:46.615Z,18.60
2023-01-13T15:50:14.168Z,20.95
2023-01-13T15:52:40.541Z,19.10
2023-01-13T15:55:07.051Z,23.50
2023-01-13T15:57:34.968Z,31.52
2023-01-13T16:00:03.021Z,18.15
2023-01-13T16:02:30.917Z,19.50
2023-01-13T16:04:57.304Z,20.58
2023-01-13T16:07:24.791Z,36.70
2023-01-13T16:09:51.463Z,20.17
2023-01-13T16:12:17.806Z,25.25
2023-01-13T16:14:44.160Z,28.55
2023-01-13T16:17:21.080Z,16.52
2023-01-13T16:19:47.368Z,22.90
2023-01-13T16:22:14.622Z,23.45
2023-01-13T16:24:41.290Z,22.02
2023-01-13T16:27:18.039Z,19.40
2023-01-13T16:29:44.522Z,20.40
2023-01-13T16:32:11.115Z,18.30
2023-01-13T16:34:37.664Z,20.88
2023-01-13T16:37:03.998Z,19.20
2023-01-13T16:39:30.957Z,16.58
2023-01-13T16:41:57.312Z,25.17
2023-01-13T16:44:23.615Z,25.23
2023-01-13T16:46:50.033Z,19.40
2023-01-13T16:49:17.453Z,21.77
2023-01-13T16:51:43.860Z,18.92
2023-01-13T16:54:10.153Z,13.52
2023-01-13T16:56:36.561Z,20.33
2023-01-13T16:59:08.016Z,20.50
2023-01-13T17:01:36.444Z,15.20
2023-01-13T17:04:03.445Z,21.60
2023-01-13T17:06:37.561Z,14.35
2023-01-13T17:09:04.875Z,17.13
2023-01-13T17:11:31.317Z,14.45
2023-01-13T17:13:57.714Z,15.45
2023-01-13T17:16:25.951Z,15.95
2023-01-13T17:18:52.623Z,13.25
2023-01-13T17:21:19.294Z,13.65
2023-01-13T17:23:45.957Z,7.65
2023-01-13T17:26:21.278Z,11.13
2023-01-13T17:28:47.586Z,8.20
2023-01-13T17:31:13.940Z,4.43
2023-01-13T17:33:40.173Z,5.63
2023-01-13T17:36:06.660Z,7.95
2023-01-13T17:38:33.057Z,8.48
2023-01-13T17:41:04.073Z,2.17
2023-01-13T17:43:31.086Z,1.88
2023-01-13T17:45:57.882Z,1.77
2023-01-13T17:48:24.513Z,2.97
2023-01-13T17:50:51.866Z,4.22
2023-01-13T17:53:18.549Z,4.25
2023-01-13T17:55:54.649Z,7.22
2023-01-13T17:58:21.532Z,7.07
2023-01-13T18:00:48.086Z,9.73
2023-01-13T18:03:14.961Z,5.60
2023-01-13T18:05:41.548Z,7.88
2023-01-13T18:08:08.079Z,6.70
2023-01-13T18:10:34.566Z,13.48
2023-01-13T18:13:03.336Z,12.45
2023-01-13T18:15:30.163Z,16.83
2023-01-13T18:17:56.572Z,11.05
2023-01-13T18:20:41.617Z,8.55
2023-01-13T18:23:36.704Z,7.07
2023-01-13T18:26:37.606Z,13.30
2023-01-13T18:31:30.415Z,24.58
2023-01-13T18:33:56.845Z,18.15
2023-01-13T18:36:23.293Z,14.75
2023-01-13T18:38:50.433Z,14.00
2023-01-13T18:41:35.716Z,17.80
2023-01-13T18:44:02.907Z,10.38
2023-01-13T18:46:29.250Z,8.20
2023-01-13T18:48:55.744Z,14.30
2023-01-13T18:51:22.111Z,8.68
2023-01-13T18:53:48.428Z,8.43
2023-01-13T18:56:15.234Z,9.25
2023-01-13T18:58:48.113Z,11.10
2023-01-13T19:01:14.527Z,8.38
2023-01-13T19:03:40.903Z,9.85
2023-01-13T19:06:12.883Z,13.82
2023-01-13T19:08:39.247Z,8.68
2023-01-13T19:11:06.183Z,9.25
2023-01-13T19:13:32.659Z,11.35
2023-01-13T19:16:03.572Z,10.35
2023-01-13T19:18:29.871Z,10.18
2023-01-13T19:21:00.277Z,15.73
2023-01-13T19:23:26.723Z,8.90
2023-01-13T19:25:54.217Z,14.32
2023-01-13T19:28:21.922Z,10.90
2023-01-13T19:30:50.650Z,10.93
2023-01-13T19:33:17.275Z,11.13
2023-01-13T19:35:43.531Z,15.15
2023-01-13T19:38:09.828Z,21.23
2023-01-13T19:40:36.075Z,9.23
2023-01-13T19:43:20.835Z,13.10
2023-01-13T19:45:50.946Z,15.70
2023-01-13T19:48:17.195Z,18.83
2023-01-13T19:50:43.442Z,18.08
2023-01-13T19:53:15.507Z,12.52
2023-01-13T19:55:49.161Z,13.50
2023-01-13T19:58:15.954Z,18.88
2023-01-13T20:00:47.148Z,10.60
2023-01-13T20:03:14.406Z,15.05
2023-01-13T20:05:40.707Z,7.40
2023-01-13T20:08:07.328Z,12.57
2023-01-13T20:10:33.631Z,11.20
2023-01-13T20:12:59.927Z,14.73
2023-01-13T20:15:26.216Z,14.52
2023-01-13T20:17:52.495Z,8.10
2023-01-13T20:20:20.345Z,8.60
2023-01-13T20:22:46.956Z,10.50
2023-01-13T20:25:16.644Z,9.68
2023-01-13T20:27:43.565Z,5.27
2023-01-13T20:30:13.238Z,4.07
2023-01-13T20:32:43.074Z,10.57
2023-01-13T20:35:10.006Z,7.27
2023-01-13T20:37:40.168Z,13.68
2023-01-13T20:40:07.215Z,12.68
2023-01-13T20:42:44.390Z,11.00
2023-01-13T20:45:11.846Z,13.57
2023-01-13T20:47:38.156Z,9.07
2023-01-13T20:50:04.554Z,10.32
2023-01-13T20:52:30.825Z,8.20
2023-01-13T20:54:57.100Z,20.30
2023-01-13T20:57:23.442Z,11.25
2023-01-13T20:59:49.748Z,18.48
2023-01-13T21:02:16.585Z,16.48
2023-01-13T21:04:43.206Z,7.78
2023-01-13T21:07:09.885Z,15.93
2023-01-13T21:09:36.450Z,22.10
2023-01-13T21:12:21.461Z,13.95
2023-01-13T21:15:06.213Z,20.85
2023-01-13T21:17:51.024Z,18.83
2023-01-13T21:20:17.554Z,12.70
2023-01-13T21:22:44.539Z,14.25
2023-01-13T21:25:12.402Z,17.48
2023-01-13T21:27:38.680Z,18.85
2023-01-13T21:30:05.235Z,15.13
2023-01-13T21:32:31.643Z,14.90
2023-01-13T21:35:01.919Z,25.38
2023-01-13T21:37:28.171Z,29.00
2023-01-13T21:39:54.450Z,17.33
2023-01-13T21:42:39.184Z,18.90
2023-01-13T21:45:24.411Z,20.02
2023-01-13T21:47:50.852Z,17.30
2023-01-13T21:50:21.513Z,27.08
2023-01-13T21:55:20.276Z,26.00
2023-01-13T21:57:47.102Z,14.43
2023-01-13T22:00:13.626Z,20.10
2023-01-13T22:02:40.037Z,17.10
2023-01-13T22:05:07.334Z,20.73
2023-01-13T22:07:34.531Z,17.70
2023-01-13T22:10:01.079Z,21.15
2023-01-13T22:12:27.915Z,23.05
2023-01-13T22:14:54.664Z,21.08
2023-01-13T22:17:21.693Z,17.40
2023-01-13T22:19:48.823Z,20.20
2023-01-13T22:22:16.412Z,17.45
2023-01-13T22:24:43.563Z,20.42
2023-01-13T22:27:10.559Z,22.80
2023-01-13T22:29:37.746Z,16.58
2023-01-13T22:32:04.573Z,23.13
2023-01-13T22:34:30.932Z,25.15
2023-01-13T22:36:57.478Z,21.60
2023-01-13T22:39:23.826Z,20.80
2023-01-13T22:41:50.124Z,19.50
2023-01-13T22:44:16.384Z,21.40
2023-01-13T22:46:42.662Z,23.60
2023-01-13T22:49:09.340Z,12.00
2023-01-13T22:51:35.647Z,20.17
2023-01-13T22:54:02.021Z,10.88
2023-01-13T22:56:28.384Z,17.15
2023-01-13T22:58:55.172Z,20.40
2023-01-13T23:01:22.112Z,17.10
2023-01-13T23:03:48.410Z,20.63
2023-01-13T23:06:14.900Z,15.18
2023-01-13T23:08:41.291Z,26.15
2023-01-13T23:11:08.156Z,23.35
2023-01-13T23:13:34.843Z,21.73
2023-01-13T23:16:01.886Z,27.38
2023-01-13T23:18:28.175Z,31.42
2023-01-13T23:20:54.476Z,19.95
2023-01-13T23:23:20.779Z,24.98
2023-01-13T23:25:50.789Z,22.50
2023-01-13T23:28:17.058Z,19.58
2023-01-13T23:30:43.445Z,18.73
2023-01-13T23:33:09.782Z,24.02
2023-01-13T23:35:36.061Z,22.40
2023-01-13T23:38:02.342Z,20.63
2023-01-13T23:40:28.639Z,17.48
2023-01-13T23:42:55.007Z,17.23
2023-01-13T23:45:21.300Z,26.75
2023-01-13T23:47:47.543Z,23.58
2023-01-13T23:50:13.823Z,23.38
2023-01-13T23:52:40.077Z,23.00
2023-01-13T23:55:06.496Z,18.13
2023-01-13T23:57:32.822Z,18.50
2023-01-13T23:59:59.112Z,27.48
